Time;durP1;ratioP1;P1;durP2;ratioP2;P2;SDS_P1;SDS_P2;PMS_P1;PMS_P2;Temp;Humidity;BMP_temperature;BMP_pressure;BME280_temperature;BME280_humidity;BME280_pressure;Samples;Min_cycle;Max_cycle;Signal;HPM_P1;HPM_P2
2022/02/23 00:00:53;;;;;;;20.83;4.10;;;6.40;99.90;;;;;;5040323;28;20897;-44
2022/02/23 00:03:20;;;;;;;23.83;4.90;;;6.40;99.90;;;;;;5069751;28;20206;-45
2022/02/23 00:05:48;;;;;;;16.83;4.47;;;6.50;99.90;;;;;;5061942;28;20538;-45
2022/02/23 00:08:15;;;;;;;28.20;5.03;;;6.50;99.90;;;;;;5084939;28;20666;-46
2022/02/23 00:10:41;;;;;;;23.03;4.93;;;6.50;99.90;;;;;;5082415;28;20781;-44
2022/02/23 00:13:08;;;;;;;22.57;4.80;;;6.50;99.90;;;;;;5083688;28;20416;-47
2022/02/23 00:15:35;;;;;;;20.97;3.87;;;6.50;99.90;;;;;;5060240;28;20202;-44
2022/02/23 00:18:01;;;;;;;22.53;3.40;;;6.50;99.90;;;;;;5070038;28;20461;-43
2022/02/23 00:20:28;;;;;;;21.00;3.90;;;6.50;99.90;;;;;;5065371;28;20231;-43
2022/02/23 00:22:56;;;;;;;30.40;5.07;;;6.50;99.90;;;;;;5061378;28;20198;-46
2022/02/23 00:25:23;;;;;;;30.77;5.57;;;6.50;99.90;;;;;;5065225;28;20210;-44
2022/02/23 00:27:49;;;;;;;34.93;5.57;;;6.50;99.90;;;;;;5060453;28;20203;-47
2022/02/23 00:30:16;;;;;;;25.70;4.97;;;6.60;99.90;;;;;;5064942;28;20731;-45
2022/02/23 00:32:43;;;;;;;30.00;5.50;;;6.60;99.90;;;;;;5047624;28;20837;-43
2022/02/23 00:35:09;;;;;;;21.83;4.47;;;6.60;99.90;;;;;;5069291;28;20202;-44
2022/02/23 00:37:36;;;;;;;32.87;4.93;;;6.60;99.90;;;;;;5065384;28;20195;-49
2022/02/23 00:40:05;;;;;;;27.43;4.57;;;6.60;99.90;;;;;;5062822;28;20218;-45
2022/02/23 00:42:31;;;;;;;18.23;4.10;;;6.60;99.90;;;;;;5064486;28;20210;-46
2022/02/23 00:44:58;;;;;;;28.13;4.63;;;6.60;99.90;;;;;;5061489;28;20905;-43
2022/02/23 00:47:25;;;;;;;28.07;5.07;;;6.60;99.90;;;;;;5049785;28;20210;-43
2022/02/23 00:49:52;;;;;;;23.67;5.50;;;6.60;99.90;;;;;;5060562;28;20240;-48
2022/02/23 00:52:19;;;;;;;34.67;5.13;;;6.60;99.90;;;;;;5064733;28;20199;-44
2022/02/23 00:54:46;;;;;;;26.67;5.33;;;6.60;99.90;;;;;;5061287;28;20202;-45
2022/02/23 00:57:15;;;;;;;23.53;4.43;;;6.60;99.90;;;;;;5064194;28;20201;-47
2022/02/23 00:59:42;;;;;;;21.50;5.23;;;6.60;99.90;;;;;;5061916;28;20215;-45
2022/02/23 01:02:08;;;;;;;25.13;4.53;;;6.70;99.90;;;;;;5051302;28;20598;-47
2022/02/23 01:04:35;;;;;;;26.13;4.53;;;6.70;99.90;;;;;;5064732;28;20209;-44
2022/02/23 01:07:02;;;;;;;17.47;3.97;;;6.70;99.90;;;;;;5061951;28;20182;-45
2022/02/23 01:09:28;;;;;;;23.03;4.07;;;6.70;99.90;;;;;;5064583;28;20571;-46
2022/02/23 01:11:55;;;;;;;23.87;5.23;;;6.70;99.90;;;;;;5060444;28;20198;-45
2022/02/23 01:14:23;;;;;;;27.47;5.57;;;6.70;99.90;;;;;;5064177;28;20193;-45
2022/02/23 01:16:50;;;;;;;28.33;5.67;;;6.70;99.90;;;;;;5045710;28;20376;-45
2022/02/23 01:19:16;;;;;;;23.27;4.10;;;6.70;99.90;;;;;;5062082;28;20229;-43
2022/02/23 01:21:44;;;;;;;24.67;4.37;;;6.70;99.90;;;;;;5061320;28;20203;-45
2022/02/23 01:24:10;;;;;;;19.83;4.60;;;6.80;99.90;;;;;;5063958;28;20217;-43
2022/02/23 01:26:38;;;;;;;27.13;4.50;;;6.70;99.90;;;;;;5061999;28;20203;-43
2022/02/23 01:29:05;;;;;;;24.60;4.63;;;6.80;99.90;;;;;;5061728;28;20191;-43
2022/02/23 01:31:33;;;;;;;25.77;6.10;;;6.80;99.90;;;;;;5063859;28;20558;-43
2022/02/23 01:34:00;;;;;;;26.30;5.00;;;6.80;99.90;;;;;;5046049;28;20206;-46
2022/02/23 01:36:26;;;;;;;24.20;4.50;;;6.80;99.90;;;;;;5063476;28;20210;-46
2022/02/23 01:38:53;;;;;;;19.83;4.33;;;6.80;99.90;;;;;;5059375;28;20915;-46
2022/02/23 01:41:20;;;;;;;19.30;4.53;;;6.80;99.90;;;;;;5063537;28;20687;-46
2022/02/23 01:43:47;;;;;;;32.10;4.70;;;6.80;99.90;;;;;;5060247;28;20194;-44
2022/02/23 01:46:14;;;;;;;21.47;4.03;;;6.80;99.90;;;;;;5063482;28;20208;-43
2022/02/23 01:48:42;;;;;;;21.47;4.17;;;6.80;99.90;;;;;;5043754;28;20643;-47
2022/02/23 01:51:09;;;;;;;32.10;4.63;;;6.80;99.90;;;;;;5062276;28;20443;-44
2022/02/23 01:53:36;;;;;;;35.10;5.33;;;6.80;99.90;;;;;;5062290;28;20199;-46
2022/02/23 01:56:03;;;;;;;28.10;4.43;;;6.80;99.90;;;;;;5060895;28;20207;-48
2022/02/23 01:58:30;;;;;;;21.83;3.97;;;6.80;99.90;;;;;;5063490;28;20202;-43
2022/02/23 02:00:58;;;;;;;23.70;4.83;;;6.80;99.90;;;;;;5059793;28;20222;-45
2022/02/23 02:03:24;;;;;;;23.60;4.57;;;6.80;99.90;;;;;;5048493;28;20206;-47
2022/02/23 02:05:52;;;;;;;19.00;3.37;;;6.80;99.90;;;;;;5058602;28;20195;-45
2022/02/23 02:08:19;;;;;;;24.53;4.60;;;6.80;99.90;;;;;;5063529;28;20706;-43
2022/02/23 02:10:45;;;;;;;19.67;3.87;;;6.80;99.90;;;;;;5060120;28;20214;-44
2022/02/23 02:13:14;;;;;;;25.70;3.90;;;6.80;99.90;;;;;;5063466;28;20195;-48
2022/02/23 02:15:42;;;;;;;30.27;5.23;;;6.80;99.90;;;;;;5060724;28;20199;-44
2022/02/23 02:18:08;;;;;;;27.67;4.23;;;6.70;99.90;;;;;;5062028;28;20198;-47
2022/02/23 02:20:35;;;;;;;10.40;3.50;;;6.70;99.90;;;;;;5043005;28;20713;-45
2022/02/23 02:23:03;;;;;;;20.27;4.53;;;6.70;99.90;;;;;;5060794;28;20225;-46
2022/02/23 02:25:31;;;;;;;22.77;4.30;;;6.70;99.90;;;;;;5062992;28;20203;-45
2022/02/23 02:27:57;;;;;;;21.97;3.60;;;6.70;99.90;;;;;;5059543;28;20201;-44
2022/02/23 02:30:24;;;;;;;25.07;4.13;;;6.60;99.90;;;;;;5062978;28;20636;-43
2022/02/23 02:32:51;;;;;;;20.30;4.37;;;6.60;99.90;;;;;;5059175;28;20190;-43
2022/02/23 02:35:17;;;;;;;21.87;4.43;;;6.60;99.90;;;;;;5048546;28;20224;-44
2022/02/23 02:37:44;;;;;;;20.57;4.07;;;6.60;99.90;;;;;;5059286;28;20194;-44
2022/02/23 02:40:13;;;;;;;23.83;4.10;;;6.60;99.90;;;;;;5062571;28;20222;-43
2022/02/23 02:42:39;;;;;;;19.57;3.30;;;6.60;99.90;;;;;;5061043;28;20608;-43
2022/02/23 02:45:07;;;;;;;19.90;3.93;;;6.60;99.90;;;;;;5061084;28;20213;-43
2022/02/23 02:47:34;;;;;;;17.93;3.90;;;6.60;99.90;;;;;;5061756;28;20206;-43
2022/02/23 02:50:01;;;;;;;22.23;4.17;;;6.60;99.90;;;;;;5047774;28;20448;-44
2022/02/23 02:52:28;;;;;;;24.33;3.80;;;6.60;99.90;;;;;;5067058;28;20202;-43
2022/02/23 02:54:55;;;;;;;21.70;3.57;;;6.60;99.90;;;;;;5059869;28;20823;-43
2022/02/23 02:57:23;;;;;;;17.53;3.60;;;6.60;99.90;;;;;;5067038;28;20248;-43
2022/02/23 02:59:49;;;;;;;29.97;5.50;;;6.60;99.90;;;;;;5062529;28;20229;-44
2022/02/23 03:02:16;;;;;;;29.20;4.47;;;6.60;99.90;;;;;;5067290;28;20199;-47
2022/02/23 03:04:43;;;;;;;31.50;4.77;;;6.70;99.90;;;;;;5053925;28;20203;-43
2022/02/23 03:07:09;;;;;;;20.63;4.80;;;6.70;99.90;;;;;;5061899;28;20217;-44
2022/02/23 03:09:36;;;;;;;20.90;3.40;;;6.60;99.90;;;;;;5065136;28;20222;-44
2022/02/23 03:12:03;;;;;;;19.83;4.50;;;6.60;99.90;;;;;;5064346;28;20401;-44
2022/02/23 03:14:31;;;;;;;21.20;5.03;;;6.60;99.90;;;;;;5066674;28;20210;-46
2022/02/23 03:16:57;;;;;;;24.70;4.43;;;6.60;99.90;;;;;;5062784;28;20197;-43
2022/02/23 03:19:24;;;;;;;21.63;4.07;;;6.60;99.90;;;;;;5066580;28;20223;-45
2022/02/23 03:21:50;;;;;;;24.87;4.33;;;6.60;99.90;;;;;;5047564;28;20222;-45
2022/02/23 03:24:17;;;;;;;20.53;4.53;;;6.60;99.90;;;;;;5066341;28;20218;-45
2022/02/23 03:26:44;;;;;;;18.33;4.27;;;6.70;99.90;;;;;;5063060;28;20206;-44
2022/02/23 03:29:10;;;;;;;19.70;3.27;;;6.60;99.90;;;;;;5065575;28;20686;-45
2022/02/23 03:31:38;;;;;;;26.33;4.00;;;6.60;99.90;;;;;;5064590;28;20195;-45
2022/02/23 03:34:05;;;;;;;30.93;5.90;;;6.70;99.90;;;;;;5064056;28;20199;-45
2022/02/23 03:36:33;;;;;;;14.90;2.97;;;6.60;99.90;;;;;;5050892;28;20203;-45
2022/02/23 03:39:00;;;;;;;17.43;3.27;;;6.60;99.90;;;;;;5061780;28;20199;-45
2022/02/23 03:41:27;;;;;;;21.13;3.50;;;6.60;99.90;;;;;;5066108;28;20225;-43
2022/02/23 03:43:53;;;;;;;18.07;3.97;;;6.60;99.90;;;;;;5061957;28;20440;-42
2022/02/23 03:46:20;;;;;;;17.90;3.20;;;6.60;99.90;;;;;;5065955;28;20207;-46
2022/02/23 03:48:48;;;;;;;20.23;3.53;;;6.60;99.90;;;;;;5062579;28;20206;-43
2022/02/23 03:51:15;;;;;;;21.27;4.60;;;6.60;99.90;;;;;;5051594;28;20218;-45
2022/02/23 03:53:42;;;;;;;17.40;4.20;;;6.60;99.90;;;;;;5063127;28;20760;-42
2022/02/23 03:56:38;;;;;;;14.33;3.13;;;6.60;99.90;;;;;;5064716;28;20339;-47
2022/02/23 03:58:55;;;;;;;21.30;4.13;;;6.60;99.90;;;;;;5061481;28;20486;-44
2022/02/23 04:01:22;;;;;;;20.30;4.10;;;6.60;99.90;;;;;;5065038;28;20223;-45
2022/02/23 04:03:50;;;;;;;18.60;4.40;;;6.60;99.90;;;;;;5061548;28;20543;-44
2022/02/23 04:06:17;;;;;;;20.03;3.83;;;6.60;99.90;;;;;;5050749;28;20671;-42
2022/02/23 04:08:43;;;;;;;18.77;3.40;;;6.60;99.90;;;;;;5062677;28;20202;-46
2022/02/23 04:11:10;;;;;;;13.77;3.13;;;6.60;99.90;;;;;;5064858;28;20328;-47
2022/02/23 04:13:36;;;;;;;17.97;3.53;;;6.60;99.90;;;;;;5064212;28;20674;-45
2022/02/23 04:16:03;;;;;;;16.03;3.20;;;6.60;99.90;;;;;;5062961;28;20199;-47
2022/02/23 04:18:30;;;;;;;15.10;4.07;;;6.60;99.90;;;;;;5065441;28;20202;-44
2022/02/23 04:20:58;;;;;;;18.00;4.37;;;6.60;99.90;;;;;;5061613;28;20310;-45
2022/02/23 04:23:27;;;;;;;14.00;3.17;;;6.60;99.90;;;;;;5050960;28;20218;-45
2022/02/23 04:25:54;;;;;;;14.87;3.63;;;6.60;99.90;;;;;;5058196;28;20201;-46
2022/02/23 04:28:21;;;;;;;18.27;3.60;;;6.60;99.90;;;;;;5065215;28;20209;-45
2022/02/23 04:30:47;;;;;;;24.03;3.87;;;6.60;99.90;;;;;;5061520;28;20237;-43
2022/02/23 04:33:15;;;;;;;21.20;3.43;;;6.60;99.90;;;;;;5064874;28;20206;-43
2022/02/23 04:35:41;;;;;;;21.20;3.67;;;6.60;99.90;;;;;;5062460;28;20329;-44
2022/02/23 04:38:09;;;;;;;15.03;2.97;;;6.60;99.90;;;;;;5046269;28;20210;-43
2022/02/23 04:40:36;;;;;;;15.17;2.80;;;6.60;99.90;;;;;;5061007;28;20211;-46
2022/02/23 04:43:03;;;;;;;14.17;3.17;;;6.60;99.90;;;;;;5062521;28;20411;-47
2022/02/23 04:45:31;;;;;;;13.40;2.97;;;6.70;99.90;;;;;;5065012;28;20195;-47
2022/02/23 04:47:57;;;;;;;21.30;3.60;;;6.60;99.90;;;;;;5061264;28;20289;-44
2022/02/23 04:50:24;;;;;;;11.80;2.63;;;6.60;99.90;;;;;;5064852;28;20236;-43
2022/02/23 04:52:51;;;;;;;16.10;3.37;;;6.60;99.90;;;;;;5060671;28;20203;-45
2022/02/23 04:55:19;;;;;;;23.60;4.33;;;6.60;99.90;;;;;;5050119;28;20214;-42
2022/02/23 04:57:46;;;;;;;17.50;3.27;;;6.60;99.90;;;;;;5060723;28;20202;-43
2022/02/23 05:00:14;;;;;;;14.83;3.17;;;6.60;99.90;;;;;;5064745;28;20219;-46
2022/02/23 05:02:40;;;;;;;11.80;2.73;;;6.60;99.90;;;;;;5062531;28;20222;-43
2022/02/23 05:05:08;;;;;;;18.60;3.13;;;6.60;99.90;;;;;;5062823;28;20195;-43
2022/02/23 05:07:35;;;;;;;20.00;2.63;;;6.60;99.90;;;;;;5063222;28;20199;-43
2022/02/23 05:10:02;;;;;;;19.83;3.57;;;6.60;99.90;;;;;;5047328;28;20422;-44
2022/02/23 05:12:31;;;;;;;12.20;2.67;;;6.60;99.90;;;;;;5063347;28;20224;-43
2022/02/23 05:14:58;;;;;;;10.23;2.73;;;6.60;99.90;;;;;;5063981;28;20458;-43
2022/02/23 05:17:25;;;;;;;15.20;3.43;;;6.60;99.90;;;;;;5083477;28;20255;-42
2022/02/23 05:19:51;;;;;;;12.77;3.27;;;6.60;99.90;;;;;;5079423;28;20214;-44
2022/02/23 05:22:18;;;;;;;15.67;4.67;;;6.60;99.90;;;;;;5083363;28;20218;-43
2022/02/23 05:24:46;;;;;;;20.07;3.10;;;6.60;99.90;;;;;;5066787;28;20198;-43
2022/02/23 05:27:12;;;;;;;19.07;2.77;;;6.60;99.90;;;;;;5058927;28;20211;-43
2022/02/23 05:29:40;;;;;;;13.30;2.73;;;6.60;99.90;;;;;;5061795;28;20577;-45
2022/02/23 05:32:08;;;;;;;13.80;3.07;;;6.60;99.90;;;;;;5062453;28;20290;-48
2022/02/23 05:34:35;;;;;;;13.53;3.10;;;6.60;99.90;;;;;;5062308;28;20230;-43
2022/02/23 05:37:02;;;;;;;18.07;3.20;;;6.60;99.90;;;;;;5060981;28;20818;-49
2022/02/23 05:39:28;;;;;;;16.73;3.83;;;6.60;99.90;;;;;;5063853;28;20222;-43
2022/02/23 05:41:55;;;;;;;28.83;3.53;;;6.60;99.90;;;;;;5044850;28;20257;-43
2022/02/23 05:44:22;;;;;;;17.70;3.10;;;6.60;99.90;;;;;;5063635;28;20206;-45
2022/02/23 05:46:49;;;;;;;17.87;3.17;;;6.60;99.90;;;;;;5059450;28;20205;-45
2022/02/23 05:49:16;;;;;;;14.70;3.10;;;6.60;99.90;;;;;;5063648;28;20203;-43
2022/02/23 05:51:46;;;;;;;16.33;3.10;;;6.60;99.90;;;;;;5061162;28;20199;-46
2022/02/23 05:54:13;;;;;;;14.87;2.67;;;6.60;99.90;;;;;;5063793;28;20230;-44
2022/02/23 05:56:41;;;;;;;17.20;3.50;;;6.60;99.90;;;;;;5053053;28;20206;-45
2022/02/23 05:59:08;;;;;;;16.60;4.00;;;6.60;99.90;;;;;;5057746;28;20470;-43
2022/02/23 06:01:35;;;;;;;16.93;3.30;;;6.60;99.90;;;;;;5062186;28;20214;-43
2022/02/23 06:04:04;;;;;;;13.57;2.67;;;6.50;99.90;;;;;;5060535;28;20206;-43
2022/02/23 06:06:31;;;;;;;20.80;3.37;;;6.50;99.90;;;;;;5062921;28;20211;-48
2022/02/23 06:08:58;;;;;;;17.80;4.00;;;6.50;99.90;;;;;;5059912;28;20195;-48
2022/02/23 06:11:25;;;;;;;19.40;3.70;;;6.50;99.90;;;;;;5063584;28;20203;-44
2022/02/23 06:13:53;;;;;;;19.00;3.57;;;6.50;99.90;;;;;;5039442;28;20213;-43
2022/02/23 06:16:20;;;;;;;21.87;3.27;;;6.50;99.90;;;;;;5062800;28;20211;-43
2022/02/23 06:18:46;;;;;;;21.67;4.47;;;6.50;99.90;;;;;;5059843;28;20246;-43
2022/02/23 06:21:15;;;;;;;23.40;3.80;;;6.50;99.90;;;;;;5063183;28;20308;-44
2022/02/23 06:23:42;;;;;;;23.10;3.90;;;6.40;99.90;;;;;;5060253;28;20207;-45
2022/02/23 06:26:08;;;;;;;24.67;4.20;;;6.40;99.90;;;;;;5060220;28;20329;-42
2022/02/23 06:28:35;;;;;;;20.07;4.30;;;6.40;99.90;;;;;;5056973;28;21218;-45
2022/02/23 06:31:02;;;;;;;24.57;3.77;;;6.40;99.90;;;;;;5056891;28;20210;-44
2022/02/23 06:33:28;;;;;;;20.20;3.90;;;6.40;99.90;;;;;;5062877;28;20194;-44
2022/02/23 06:35:55;;;;;;;17.20;3.60;;;6.30;99.90;;;;;;5058884;28;20194;-45
2022/02/23 06:38:23;;;;;;;24.47;4.00;;;6.30;99.90;;;;;;5063263;28;20575;-43
2022/02/23 06:40:51;;;;;;;19.03;3.50;;;6.30;99.90;;;;;;5058876;28;20226;-43
2022/02/23 06:43:18;;;;;;;15.87;4.63;;;6.20;99.90;;;;;;5063100;28;20305;-43
2022/02/23 06:45:47;;;;;;;21.93;4.17;;;6.20;99.90;;;;;;5044748;28;20210;-43
2022/02/23 06:48:14;;;;;;;20.60;3.67;;;6.30;99.90;;;;;;5062513;28;20209;-43
2022/02/23 06:50:41;;;;;;;16.57;3.77;;;6.30;99.90;;;;;;5060904;28;20222;-43
2022/02/23 06:53:08;;;;;;;17.83;3.50;;;6.30;99.90;;;;;;5062248;28;20337;-43
2022/02/23 06:55:54;;;;;;;19.77;4.07;;;6.30;99.90;;;;;;5058431;28;20221;-44
2022/02/23 06:58:21;;;;;;;17.67;3.47;;;6.30;99.90;;;;;;5063054;28;20289;-44
2022/02/23 07:00:49;;;;;;;22.27;3.70;;;6.30;99.90;;;;;;5044543;28;20222;-42
2022/02/23 07:03:16;;;;;;;23.63;4.40;;;6.30;99.90;;;;;;5062657;28;20302;-43
2022/02/23 07:05:43;;;;;;;21.73;4.60;;;6.30;99.90;;;;;;5067798;28;20255;-46
2022/02/23 07:08:11;;;;;;;15.30;3.27;;;6.30;99.90;;;;;;5061954;28;20217;-44
2022/02/23 07:10:38;;;;;;;17.07;3.50;;;6.40;99.90;;;;;;5061239;28;20683;-48
2022/02/23 07:13:09;;;;;;;20.37;3.50;;;6.40;99.90;;;;;;5060886;28;20269;-44
2022/02/23 07:15:36;;;;;;;16.63;3.37;;;6.40;99.90;;;;;;5046396;28;20260;-46
2022/02/23 07:18:04;;;;;;;18.63;3.97;;;6.40;99.90;;;;;;5059887;28;20187;-43
2022/02/23 07:20:31;;;;;;;26.43;4.27;;;6.40;99.90;;;;;;5062421;28;20226;-44
2022/02/23 07:22:59;;;;;;;14.97;3.70;;;6.40;99.90;;;;;;5059461;28;20289;-44
2022/02/23 07:25:26;;;;;;;21.37;4.10;;;6.50;99.90;;;;;;5062639;28;20202;-45
2022/02/23 07:27:52;;;;;;;21.83;4.53;;;6.50;99.90;;;;;;5058281;28;20194;-45
2022/02/23 07:30:20;;;;;;;24.47;5.27;;;6.50;99.90;;;;;;5062463;28;20233;-45
2022/02/23 07:32:48;;;;;;;25.47;4.53;;;6.50;99.90;;;;;;5043952;28;20207;-44
2022/02/23 07:35:14;;;;;;;24.30;3.70;;;6.50;99.90;;;;;;5062426;28;20648;-43
2022/02/23 07:37:46;;;;;;;14.60;3.50;;;6.50;99.90;;;;;;5062514;28;20611;-43
2022/02/23 07:40:18;;;;;;;22.30;3.93;;;6.50;99.90;;;;;;5065890;28;20229;-43
2022/02/23 07:42:45;;;;;;;18.67;3.70;;;6.60;99.90;;;;;;5082587;28;20214;-43
2022/02/23 07:45:12;;;;;;;16.13;3.23;;;6.50;99.90;;;;;;5085022;28;20206;-45
2022/02/23 07:47:40;;;;;;;23.40;4.47;;;6.60;99.90;;;;;;5058678;28;20209;-46
2022/02/23 07:50:12;;;;;;;23.43;4.00;;;6.60;99.90;;;;;;5070131;28;20225;-44
2022/02/23 07:52:39;;;;;;;21.07;4.13;;;6.60;99.90;;;;;;5058162;28;20248;-46
2022/02/23 07:55:07;;;;;;;13.00;2.87;;;6.60;99.90;;;;;;5064020;28;20311;-43
2022/02/23 07:57:34;;;;;;;19.13;4.30;;;6.60;99.90;;;;;;5064837;28;20678;-43
2022/02/23 08:00:01;;;;;;;21.53;4.43;;;6.60;99.90;;;;;;5063016;28;20981;-43
2022/02/23 08:02:31;;;;;;;17.67;3.47;;;6.60;99.90;;;;;;5065494;28;20250;-46
2022/02/23 08:04:59;;;;;;;20.87;4.10;;;6.70;99.90;;;;;;5047100;28;20214;-45
2022/02/23 08:07:27;;;;;;;22.97;4.10;;;6.70;99.90;;;;;;5065575;28;20225;-47
2022/02/23 08:09:54;;;;;;;25.67;3.73;;;6.70;99.90;;;;;;5061454;28;20207;-45
2022/02/23 08:12:21;;;;;;;19.47;4.40;;;6.80;99.90;;;;;;5065886;28;20199;-45
2022/02/23 08:14:48;;;;;;;20.33;3.53;;;6.80;99.90;;;;;;5061733;28;20678;-43
2022/02/23 08:20:00;;;;;;;19.83;3.43;;;6.80;99.90;;;;;;5047517;28;20221;-44
2022/02/23 08:22:29;;;;;;;22.17;3.77;;;6.80;99.90;;;;;;5065249;28;20222;-45
2022/02/23 08:24:58;;;;;;;21.77;4.67;;;6.80;99.90;;;;;;5058736;28;20206;-46
2022/02/23 08:27:26;;;;;;;22.00;4.70;;;6.80;99.90;;;;;;5065284;28;20226;-44
2022/02/23 08:29:54;;;;;;;16.10;3.37;;;6.90;99.90;;;;;;5061109;28;20924;-46
2022/02/23 08:32:22;;;;;;;21.60;3.77;;;6.90;99.90;;;;;;5065269;28;20194;-43
2022/02/23 08:34:51;;;;;;;20.23;4.10;;;6.90;99.90;;;;;;5041643;28;20211;-43
2022/02/23 08:37:20;;;;;;;18.67;4.23;;;7.00;99.90;;;;;;5064566;28;20206;-45
2022/02/23 08:39:48;;;;;;;21.13;3.90;;;7.00;99.90;;;;;;5061691;28;20225;-46
2022/02/23 08:42:17;;;;;;;18.03;3.43;;;7.10;99.90;;;;;;5064935;28;20215;-45
2022/02/23 08:44:44;;;;;;;23.50;3.80;;;7.00;99.90;;;;;;5062247;28;20269;-45
2022/02/23 08:47:12;;;;;;;19.40;3.13;;;7.10;99.90;;;;;;5063598;28;20221;-48
2022/02/23 08:49:39;;;;;;;29.47;4.53;;;7.10;99.90;;;;;;5055425;28;20219;-43
2022/02/23 08:52:07;;;;;;;19.90;3.90;;;7.10;99.90;;;;;;5057009;28;20213;-45
2022/02/23 08:54:36;;;;;;;20.03;3.33;;;7.10;99.90;;;;;;5064051;28;20207;-45
2022/02/23 08:57:03;;;;;;;18.53;3.70;;;7.10;99.90;;;;;;5061913;28;20898;-46
2022/02/23 08:59:30;;;;;;;24.30;4.23;;;7.20;99.90;;;;;;5064838;28;20722;-44
2022/02/23 09:01:56;;;;;;;13.70;3.50;;;7.20;99.90;;;;;;5060871;28;20591;-43
2022/02/23 09:04:23;;;;;;;16.93;3.80;;;7.20;99.90;;;;;;5064561;28;20198;-45
2022/02/23 09:06:49;;;;;;;17.57;3.50;;;7.30;99.90;;;;;;5045924;28;20903;-47
2022/02/23 09:09:16;;;;;;;16.57;4.13;;;7.40;99.90;;;;;;5064308;28;20267;-44
2022/02/23 09:11:44;;;;;;;15.30;3.10;;;7.40;99.90;;;;;;5061835;28;20198;-43
2022/02/23 09:14:12;;;;;;;15.23;3.80;;;7.40;99.90;;;;;;5063993;28;20209;-42
2022/02/23 09:16:38;;;;;;;20.90;3.67;;;7.40;99.90;;;;;;5062325;28;20195;-44
2022/02/23 09:19:05;;;;;;;22.77;3.37;;;7.40;99.90;;;;;;5062270;28;20913;-42
2022/02/23 09:21:32;;;;;;;24.03;4.70;;;7.40;99.90;;;;;;5046149;28;20725;-43
2022/02/23 09:24:00;;;;;;;13.37;3.20;;;7.40;99.90;;;;;;5060457;28;20224;-42
2022/02/23 09:26:28;;;;;;;18.73;3.40;;;7.40;99.90;;;;;;5064157;28;20243;-43
2022/02/23 09:28:56;;;;;;;13.00;3.37;;;7.40;99.90;;;;;;5060135;28;20252;-44
2022/02/23 09:31:23;;;;;;;14.13;3.00;;;7.40;99.90;;;;;;5064048;28;20226;-44
2022/02/23 09:33:51;;;;;;;19.13;3.40;;;7.40;99.90;;;;;;5059849;28;20907;-44
2022/02/23 09:36:17;;;;;;;22.93;4.37;;;7.40;99.90;;;;;;5063727;28;20191;-47
2022/02/23 09:38:45;;;;;;;18.20;3.53;;;7.40;99.90;;;;;;5045998;28;20206;-43
2022/02/23 09:41:16;;;;;;;16.80;3.37;;;7.30;99.90;;;;;;5063423;28;20219;-43
2022/02/23 09:43:43;;;;;;;13.40;3.57;;;7.30;99.90;;;;;;5061370;28;20222;-46
2022/02/23 09:46:13;;;;;;;13.47;3.77;;;7.30;99.90;;;;;;5062693;28;20194;-45
2022/02/23 09:48:40;;;;;;;18.13;3.53;;;7.40;99.90;;;;;;5061695;28;20199;-45
2022/02/23 09:51:08;;;;;;;13.10;3.87;;;7.50;99.90;;;;;;5062107;28;20517;-49
2022/02/23 09:53:35;;;;;;;18.53;3.80;;;7.50;99.90;;;;;;5046807;28;20284;-44
2022/02/23 09:56:02;;;;;;;17.33;3.53;;;7.50;99.90;;;;;;5061035;28;20869;-46
2022/02/23 09:58:29;;;;;;;16.50;3.73;;;7.60;99.90;;;;;;5063470;28;20210;-47
2022/02/23 10:00:56;;;;;;;15.93;3.00;;;7.60;99.90;;;;;;5059804;28;20221;-46
2022/02/23 10:03:25;;;;;;;19.57;3.27;;;7.70;99.90;;;;;;5063323;28;20218;-48
2022/02/23 10:05:52;;;;;;;13.07;2.90;;;7.80;99.90;;;;;;5059058;28;20214;-43
2022/02/23 10:08:19;;;;;;;19.20;3.73;;;7.80;99.90;;;;;;5063402;28;20203;-44
2022/02/23 10:10:50;;;;;;;17.30;3.53;;;7.80;99.90;;;;;;5045723;28;20252;-44
2022/02/23 10:13:19;;;;;;;18.07;4.07;;;7.80;99.90;;;;;;5063449;28;20195;-42
2022/02/23 10:15:48;;;;;;;14.70;3.43;;;7.90;99.90;;;;;;5059782;28;20274;-43
2022/02/23 10:18:19;;;;;;;14.60;3.43;;;7.90;99.90;;;;;;5063400;28;20631;-44
2022/02/23 10:20:51;;;;;;;9.67;2.80;;;7.90;99.90;;;;;;5060069;28;20630;-46
2022/02/23 10:23:20;;;;;;;16.20;3.27;;;7.90;99.90;;;;;;5057187;28;20301;-45
2022/02/23 10:25:52;;;;;;;11.77;3.37;;;7.90;99.90;;;;;;5043680;28;20291;-43
2022/02/23 10:28:21;;;;;;;17.03;3.67;;;8.00;99.90;;;;;;5063053;28;20565;-43
2022/02/23 10:30:50;;;;;;;14.20;3.77;;;7.90;99.90;;;;;;5059296;28;20226;-43
2022/02/23 10:33:20;;;;;;;16.40;3.07;;;8.00;99.90;;;;;;5063142;28;20691;-45
2022/02/23 10:36:00;;;;;;;13.47;3.17;;;8.00;99.90;;;;;;5059239;28;20203;-42
2022/02/23 10:38:30;;;;;;;11.87;2.90;;;8.10;99.90;;;;;;5063090;28;20722;-43
2022/02/23 10:40:58;;;;;;;14.77;3.00;;;8.10;99.90;;;;;;5039535;28;20237;-42
2022/02/23 10:43:28;;;;;;;14.97;2.83;;;8.20;99.90;;;;;;5062861;28;20385;-43
2022/02/23 10:46:06;;;;;;;11.27;2.93;;;8.20;99.90;;;;;;5059097;28;20222;-43
2022/02/23 10:48:36;;;;;;;9.03;2.90;;;8.30;99.90;;;;;;5062358;28;20256;-43
2022/02/23 10:51:05;;;;;;;17.73;3.40;;;8.40;99.90;;;;;;5060817;28;20218;-47
2022/02/23 10:53:33;;;;;;;19.77;3.77;;;8.50;99.90;;;;;;5070543;28;20209;-44
2022/02/23 10:56:01;;;;;;;14.73;3.87;;;8.50;99.90;;;;;;5045361;28;20421;-44
2022/02/23 10:58:29;;;;;;;14.60;2.97;;;8.50;99.90;;;;;;5066072;28;20202;-47
2022/02/23 11:01:02;;;;;;;10.47;2.77;;;8.40;99.90;;;;;;5052302;28;20434;-48
2022/02/23 11:03:29;;;;;;;11.77;2.73;;;8.50;99.90;;;;;;5063081;28;20678;-47
2022/02/23 11:05:56;;;;;;;8.63;2.60;;;8.50;99.90;;;;;;5058630;28;20269;-47
2022/02/23 11:08:24;;;;;;;10.57;2.23;;;8.60;99.90;;;;;;5063168;28;20206;-45
2022/02/23 11:10:51;;;;;;;10.93;2.93;;;8.70;99.90;;;;;;5060717;28;20210;-45
2022/02/23 11:13:19;;;;;;;7.53;2.83;;;8.80;99.90;;;;;;5051976;28;20275;-43
2022/02/23 11:15:49;;;;;;;9.23;1.83;;;8.90;99.90;;;;;;5062790;28;20209;-43
2022/02/23 11:18:17;;;;;;;9.63;2.13;;;9.00;99.90;;;;;;5066808;28;20587;-45
2022/02/23 11:20:45;;;;;;;9.93;2.63;;;9.00;99.90;;;;;;5063590;28;20309;-48
2022/02/23 11:23:18;;;;;;;13.07;2.67;;;9.10;99.90;;;;;;5066632;28;20301;-43
2022/02/23 11:25:48;;;;;;;10.63;2.43;;;9.10;99.90;;;;;;5063556;28;20209;-45
2022/02/23 11:28:22;;;;;;;10.90;2.67;;;9.10;99.90;;;;;;5051916;28;20207;-43
2022/02/23 11:30:50;;;;;;;6.03;1.80;;;9.10;99.90;;;;;;5062037;28;20234;-44
2022/02/23 11:33:22;;;;;;;6.27;1.93;;;9.20;99.90;;;;;;5066370;28;20205;-43
2022/02/23 11:35:51;;;;;;;8.97;1.73;;;9.30;99.90;;;;;;5062091;28;20576;-43
2022/02/23 11:38:20;;;;;;;9.43;2.33;;;9.40;99.90;;;;;;5066807;28;20549;-44
2022/02/23 11:40:49;;;;;;;10.37;2.17;;;9.50;99.90;;;;;;5062917;28;20730;-43
2022/02/23 11:43:32;;;;;;;9.67;1.90;;;9.50;99.90;;;;;;5051662;28;20218;-43
2022/02/23 11:46:01;;;;;;;11.40;2.10;;;9.60;99.90;;;;;;5056137;28;20198;-43
2022/02/23 11:48:45;;;;;;;10.70;1.90;;;9.70;99.90;;;;;;5066291;28;20566;-46
2022/02/23 11:51:24;;;;;;;9.13;2.13;;;9.60;99.90;;;;;;5065999;28;20276;-44
2022/02/23 11:53:51;;;;;;;8.03;2.07;;;9.60;99.90;;;;;;5061800;28;20240;-43
2022/02/23 11:56:20;;;;;;;11.20;1.97;;;9.60;99.90;;;;;;5066205;28;20844;-48
2022/02/23 11:58:49;;;;;;;8.83;1.47;;;9.70;99.90;;;;;;5042613;28;20214;-46
2022/02/23 12:01:17;;;;;;;7.57;1.57;;;9.70;99.90;;;;;;5066229;28;20640;-44
2022/02/23 12:04:12;;;;;;;7.10;1.77;;;9.70;99.90;;;;;;5062731;28;20305;-43
2022/02/23 12:07:07;;;;;;;8.00;1.90;;;9.70;99.90;;;;;;5061742;28;20195;-45
2022/02/23 12:10:07;;;;;;;7.87;1.97;;;9.70;99.90;;;;;;5064844;28;20219;-44
2022/02/23 12:12:35;;;;;;;7.03;1.37;;;9.80;99.90;;;;;;5050477;28;20226;-43
2022/02/23 12:15:04;;;;;;;8.23;1.80;;;9.90;99.90;;;;;;5063279;28;20197;-45
2022/02/23 12:17:58;;;;;;;13.10;1.93;;;9.90;99.90;;;;;;5065486;28;20207;-46
2022/02/23 12:21:09;;;;;;;9.23;1.70;;;9.90;99.90;;;;;;5059731;28;20252;-43
2022/02/23 12:23:38;;;;;;;7.03;1.70;;;10.00;99.90;;;;;;4982096;28;20256;-45
2022/02/23 12:26:29;;;;;;;5.13;1.73;;;10.00;99.90;;;;;;5000438;28;20208;-44
2022/02/23 12:29:00;;;;;;;5.87;1.07;;;9.90;99.90;;;;;;5029237;28;20855;-44
2022/02/23 12:31:30;;;;;;;6.77;1.73;;;9.90;99.90;;;;;;5065210;28;20198;-44
2022/02/23 12:34:00;;;;;;;4.67;1.63;;;10.00;99.90;;;;;;5062763;28;20263;-44
2022/02/23 12:36:36;;;;;;;2.37;0.70;;;9.90;99.90;;;;;;5068596;28;20209;-42
2022/02/23 12:39:05;;;;;;;3.97;1.10;;;9.80;99.90;;;;;;5062963;28;20198;-43
2022/02/23 12:41:34;;;;;;;6.90;1.33;;;9.90;99.90;;;;;;5064803;28;20201;-45
2022/02/23 12:44:04;;;;;;;4.17;1.27;;;10.00;99.90;;;;;;5047323;28;20215;-43
2022/02/23 12:46:33;;;;;;;4.73;1.47;;;10.00;99.90;;;;;;5064457;28;20581;-46
2022/02/23 12:49:00;;;;;;;4.07;0.97;;;10.10;99.90;;;;;;5081636;28;20198;-42
2022/02/23 12:51:30;;;;;;;4.23;1.43;;;10.10;99.90;;;;;;5084625;28;20285;-43
2022/02/23 12:54:03;;;;;;;5.47;1.03;;;10.20;99.90;;;;;;5080843;28;20186;-46
2022/02/23 12:56:33;;;;;;;6.27;1.10;;;10.20;99.90;;;;;;5059163;28;20252;-44